Time;durP1;ratioP1;P1;durP2;ratioP2;P2;SDS_P1;SDS_P2;PMS_P1;PMS_P2;Temp;Humidity;BMP_temperature;BMP_pressure;BME280_temperature;BME280_humidity;BME280_pressure;Samples;Min_cycle;Max_cycle;Signal;HPM_P1;HPM_P2
2021/04/01 00:00:11;;;;;;;39.60;24.87;;;;;;;11.76;38.52;95473.84;5088419;28;20433;-72
2021/04/01 00:02:37;;;;;;;38.87;23.70;;;;;;;11.77;38.13;95464.94;5071727;28;20446;-70
2021/04/01 00:05:06;;;;;;;37.13;24.33;;;;;;;11.89;38.43;95473.44;5071466;28;20462;-70
2021/04/01 00:07:33;;;;;;;35.23;23.20;;;;;;;11.90;38.43;95469.75;5078102;28;20564;-71
2021/04/01 00:10:00;;;;;;;35.73;21.80;;;;;;;12.03;38.18;95461.47;5091286;28;20495;-70
2021/04/01 00:12:26;;;;;;;33.67;20.03;;;;;;;11.94;37.83;95455.09;5092481;28;20905;-71
2021/04/01 00:14:52;;;;;;;28.00;19.93;;;;;;;11.90;37.92;95456.63;5091325;28;20448;-72
2021/04/01 00:17:19;;;;;;;34.10;19.83;;;;;;;11.96;37.78;95448.56;5092104;28;20440;-71
2021/04/01 00:19:45;;;;;;;28.57;19.43;;;;;;;11.98;37.33;95445.69;5089992;28;21041;-70
2021/04/01 00:22:12;;;;;;;32.60;18.40;;;;;;;11.94;37.28;95445.38;5071470;28;20531;-72
2021/04/01 00:24:38;;;;;;;25.97;17.67;;;;;;;11.97;36.82;95428.34;5071399;28;20509;-70
2021/04/01 00:27:06;;;;;;;27.43;18.70;;;;;;;11.78;37.55;95429.75;5071208;28;20499;-70
2021/04/01 00:29:33;;;;;;;28.17;19.17;;;;;;;11.82;37.54;95431.63;5071508;28;20913;-70
2021/04/01 00:31:59;;;;;;;26.57;17.70;;;;;;;11.91;37.36;95439.84;5070536;28;20517;-70
2021/04/01 00:34:25;;;;;;;25.37;17.30;;;;;;;11.93;36.89;95437.75;5071239;28;20469;-70
2021/04/01 00:36:52;;;;;;;29.03;17.77;;;;;;;11.79;37.29;95426.06;5071248;28;20468;-70
2021/04/01 00:39:18;;;;;;;28.93;18.63;;;;;;;11.62;38.25;95420.13;5076644;28;20454;-72
2021/04/01 00:41:45;;;;;;;27.20;17.90;;;;;;;11.44;38.56;95423.88;5070768;28;20833;-71
2021/04/01 00:44:13;;;;;;;27.43;18.13;;;;;;;11.55;38.58;95424.78;5082263;28;20445;-70
2021/04/01 00:46:39;;;;;;;29.23;19.07;;;;;;;11.61;38.59;95414.06;5091532;28;20445;-71
2021/04/01 00:49:06;;;;;;;27.40;18.37;;;;;;;11.67;38.10;95412.31;5091416;28;20473;-69
2021/04/01 00:51:32;;;;;;;27.23;18.27;;;;;;;11.65;38.62;95394.19;5090006;28;20445;-71
2021/04/01 00:54:00;;;;;;;28.77;18.27;;;;;;;11.61;38.23;95392.28;5081917;28;20964;-70
2021/04/01 00:56:27;;;;;;;24.30;16.50;;;;;;;11.43;38.64;95397.88;5070871;28;20446;-72
2021/04/01 00:58:54;;;;;;;25.83;17.53;;;;;;;11.43;38.87;95392.63;5071131;28;20902;-70
2021/04/01 01:01:34;;;;;;;28.43;16.40;;;;;;;11.53;38.76;95395.38;5070240;28;20529;-70
2021/04/01 01:04:01;;;;;;;24.47;17.67;;;;;;;11.50;39.11;95398.47;5076960;28;20853;-72
2021/04/01 01:06:28;;;;;;;24.50;17.13;;;;;;;11.43;38.60;95369.03;5083218;28;20449;-70
2021/04/01 01:08:55;;;;;;;24.47;17.00;;;;;;;11.69;39.09;95394.50;5082167;28;20486;-72
2021/04/01 01:11:22;;;;;;;23.83;16.80;;;;;;;11.74;39.48;95394.53;5069462;28;20453;-71
2021/04/01 01:13:48;;;;;;;25.93;16.57;;;;;;;11.80;38.88;95388.28;5070462;28;20460;-70
2021/04/01 01:16:15;;;;;;;25.77;17.20;;;;;;;11.74;38.00;95381.41;5070316;28;20935;-70
2021/04/01 01:18:41;;;;;;;29.57;17.87;;;;;;;11.61;38.20;95376.53;5070904;28;20831;-72
2021/04/01 01:21:08;;;;;;;24.20;16.47;;;;;;;11.74;37.52;95370.91;5084087;28;20444;-70
2021/04/01 01:23:35;;;;;;;27.47;16.83;;;;;;;11.70;37.57;95367.19;5091001;28;20451;-69
2021/04/01 01:26:02;;;;;;;24.67;16.00;;;;;;;11.72;37.27;95349.34;5090705;28;20440;-69
2021/04/01 01:28:28;;;;;;;22.40;15.20;;;;;;;11.72;37.48;95358.03;5090940;28;20809;-70
2021/04/01 01:30:55;;;;;;;24.80;16.23;;;;;;;11.72;37.45;95342.28;5090301;28;20477;-71
2021/04/01 01:33:22;;;;;;;24.07;15.67;;;;;;;11.63;37.56;95342.94;5090515;28;20441;-72
2021/04/01 01:35:52;;;;;;;22.37;15.73;;;;;;;11.67;37.31;95338.81;5090174;28;20439;-72
2021/04/01 01:38:20;;;;;;;22.43;15.03;;;;;;;11.73;37.88;95345.69;5076708;28;20442;-71
2021/04/01 01:40:47;;;;;;;21.53;15.90;;;;;;;11.79;37.35;95332.34;5069846;28;20449;-71
2021/04/01 01:43:15;;;;;;;21.50;15.97;;;;;;;11.77;37.62;95339.69;5069718;28;20533;-71
2021/04/01 01:45:43;;;;;;;25.20;16.63;;;;;;;11.81;38.37;95342.59;5069749;28;20893;-70
2021/04/01 01:48:10;;;;;;;21.83;15.77;;;;;;;11.69;38.88;95342.00;5070174;28;20434;-70
2021/04/01 01:50:39;;;;;;;25.27;16.37;;;;;;;11.76;38.33;95329.44;5069399;28;20489;-70
2021/04/01 01:53:07;;;;;;;24.37;15.70;;;;;;;11.78;38.26;95324.72;5075786;28;20445;-70
2021/04/01 01:55:35;;;;;;;25.07;16.40;;;;;;;11.70;38.30;95312.06;5089953;28;20950;-71
2021/04/01 01:58:02;;;;;;;24.03;15.80;;;;;;;11.82;38.37;95320.56;5090613;28;20437;-71
2021/04/01 02:00:43;;;;;;;24.10;15.43;;;;;;;11.79;38.59;95305.28;5089928;28;20946;-70
2021/04/01 02:03:11;;;;;;;21.70;15.97;;;;;;;11.69;37.86;95300.00;5089974;28;20512;-70
2021/04/01 02:05:39;;;;;;;20.90;15.03;;;;;;;11.61;38.72;95309.09;5089769;28;20838;-71
2021/04/01 02:08:07;;;;;;;24.70;17.53;;;;;;;11.59;39.44;95315.63;5089935;28;20906;-70
2021/04/01 02:10:37;;;;;;;32.77;21.50;;;;;;;11.56;39.96;95310.88;5089596;28;20503;-70
2021/04/01 02:13:04;;;;;;;44.73;28.00;;;;;;;11.47;40.33;95307.13;5081886;28;20441;-70
2021/04/01 02:15:33;;;;;;;55.13;34.27;;;;;;;11.50;41.04;95322.38;5068992;28;20445;-72
2021/04/01 02:18:19;;;;;;;78.47;40.63;;;;;;;11.32;41.49;95323.53;5070213;28;20429;-71
2021/04/01 02:20:49;;;;;;;76.97;39.20;;;;;;;11.43;41.87;95316.53;5069366;28;20445;-68
2021/04/01 02:23:21;;;;;;;54.27;32.73;;;;;;;11.38;41.97;95324.38;5069921;28;20533;-69
2021/04/01 02:25:51;;;;;;;51.47;32.53;;;;;;;11.31;42.13;95329.03;5069666;28;20483;-69
2021/04/01 02:28:20;;;;;;;44.63;26.17;;;;;;;11.12;42.40;95333.84;5070105;28;21063;-68
2021/04/01 02:30:50;;;;;;;47.67;27.97;;;;;;;10.89;43.05;95337.53;5069242;28;20485;-68
2021/04/01 02:33:19;;;;;;;31.37;22.00;;;;;;;11.09;42.13;95329.88;5070090;28;20445;-69
2021/04/01 02:35:45;;;;;;;26.87;17.97;;;;;;;10.99;42.45;95332.41;5069275;28;20927;-68
2021/04/01 02:38:12;;;;;;;30.13;18.67;;;;;;;11.02;42.35;95342.41;5069840;28;20462;-71
2021/04/01 02:40:39;;;;;;;26.30;17.30;;;;;;;10.76;43.47;95348.41;5069191;28;20440;-70
2021/04/01 02:43:07;;;;;;;24.33;17.30;;;;;;;10.80;43.19;95362.59;5069376;28;20434;-71
2021/04/01 02:45:34;;;;;;;30.17;17.60;;;;;;;10.82;43.24;95342.19;5077119;28;20441;-69
2021/04/01 02:48:00;;;;;;;27.13;18.33;;;;;;;10.75;43.47;95357.31;5089729;28;20448;-70
2021/04/01 02:50:27;;;;;;;26.13;17.57;;;;;;;10.81;43.77;95353.72;5089235;28;20472;-70
2021/04/01 02:52:53;;;;;;;26.97;16.20;;;;;;;10.48;44.31;95355.66;5089563;28;20437;-70
2021/04/01 02:55:20;;;;;;;25.10;17.83;;;;;;;10.60;43.95;95348.47;5092344;28;20860;-70
2021/04/01 02:57:47;;;;;;;26.93;16.63;;;;;;;10.76;43.32;95369.41;5093721;28;20440;-69
2021/04/01 03:00:18;;;;;;;23.23;16.07;;;;;;;10.78;43.35;95369.94;5092627;28;20615;-70
2021/04/01 03:02:46;;;;;;;25.47;16.80;;;;;;;10.58;43.84;95364.47;5093082;28;20531;-71
2021/04/01 03:05:13;;;;;;;22.77;16.40;;;;;;;10.55;43.22;95351.81;5092887;28;20456;-71
2021/04/01 03:07:40;;;;;;;24.10;16.33;;;;;;;10.69;43.39;95352.25;5093463;28;20556;-70
2021/04/01 03:10:10;;;;;;;25.63;16.03;;;;;;;10.73;43.65;95358.59;5092455;28;20519;-70
2021/04/01 03:12:37;;;;;;;25.20;16.80;;;;;;;10.53;44.08;95353.88;5093255;28;20444;-71
2021/04/01 03:15:05;;;;;;;26.10;17.00;;;;;;;10.34;44.52;95350.00;5092786;28;20439;-71
2021/04/01 03:17:32;;;;;;;25.40;16.57;;;;;;;10.36;43.99;95347.13;5093617;28;20448;-71
2021/04/01 03:19:59;;;;;;;22.23;15.97;;;;;;;10.14;43.50;95336.63;5092959;28;20437;-71
2021/04/01 03:22:25;;;;;;;26.47;15.50;;;;;;;10.05;43.58;95345.91;5093036;28;20448;-70
2021/04/01 03:24:52;;;;;;;23.90;15.00;;;;;;;10.21;43.38;95345.09;5092445;28;20437;-70
2021/04/01 03:27:19;;;;;;;21.83;16.13;;;;;;;10.25;42.89;95338.34;5092897;28;20441;-68
2021/04/01 03:30:03;;;;;;;30.77;16.87;;;;;;;10.43;43.14;95343.31;5092304;28;21023;-70
2021/04/01 03:32:49;;;;;;;27.43;16.37;;;;;;;10.46;43.72;95332.31;5093311;28;20540;-70
2021/04/01 03:35:21;;;;;;;25.10;15.70;;;;;;;10.44;42.54;95323.91;5092207;28;20447;-70
2021/04/01 03:37:56;;;;;;;26.67;15.77;;;;;;;10.52;43.59;95333.97;5092915;28;20457;-69
2021/04/01 03:40:24;;;;;;;27.00;17.03;;;;;;;10.68;43.56;95334.94;5091834;28;20451;-69
2021/04/01 03:42:51;;;;;;;27.57;18.13;;;;;;;10.55;44.28;95336.09;5092523;28;20436;-70
2021/04/01 03:45:17;;;;;;;23.57;16.07;;;;;;;10.61;43.08;95337.75;5092224;28;20820;-70
2021/04/01 03:47:51;;;;;;;25.67;17.20;;;;;;;10.69;43.07;95342.53;5079461;28;20460;-70
2021/04/01 03:50:18;;;;;;;24.30;16.50;;;;;;;10.70;43.43;95345.97;5076233;28;20487;-69
2021/04/01 03:52:44;;;;;;;29.60;17.50;;;;;;;10.74;43.15;95332.16;5092426;28;20433;-70
2021/04/01 03:57:40;;;;;;;32.53;18.27;;;;;;;10.57;44.49;95336.66;5092862;28;20451;-71
2021/04/01 04:00:14;;;;;;;27.07;17.33;;;;;;;10.66;43.65;95322.09;5091585;28;20451;-73
2021/04/01 04:02:53;;;;;;;25.63;16.50;;;;;;;10.82;43.76;95334.31;5075853;28;20520;-70
2021/04/01 04:05:36;;;;;;;34.53;16.90;;;;;;;10.75;43.45;95336.34;5076782;28;20449;-69
2021/04/01 04:16:05;;;;;;;24.57;17.20;;;;;;;10.64;43.76;95342.50;5074618;28;20456;-70
2021/04/01 04:18:32;;;;;;;24.77;15.93;;;;;;;10.72;43.16;95339.47;5072456;28;20452;-70
2021/04/01 04:20:58;;;;;;;27.40;17.63;;;;;;;10.67;42.71;95321.06;5071122;28;20442;-69
2021/04/01 04:23:25;;;;;;;24.90;17.03;;;;;;;10.81;43.39;95339.81;5084970;28;20505;-67
2021/04/01 04:25:54;;;;;;;25.57;17.03;;;;;;;10.86;43.30;95345.91;5082696;28;20438;-69
2021/04/01 04:30:48;;;;;;;30.13;17.63;;;;;;;10.74;43.53;95355.72;5070439;28;21010;-68
2021/04/01 04:33:14;;;;;;;30.13;18.60;;;;;;;10.78;43.40;95346.34;5071395;28;20507;-66
2021/04/01 04:35:40;;;;;;;30.30;18.17;;;;;;;11.00;43.45;95354.97;5071158;28;20444;-69
2021/04/01 04:38:07;;;;;;;26.07;17.40;;;;;;;10.98;43.07;95361.50;5071453;28;20434;-67
2021/04/01 04:40:33;;;;;;;29.67;18.77;;;;;;;10.90;43.70;95354.88;5070677;28;20442;-67
2021/04/01 04:43:00;;;;;;;26.57;18.40;;;;;;;10.91;42.96;95361.69;5071087;28;20956;-69
2021/04/01 04:45:26;;;;;;;34.40;18.07;;;;;;;10.82;44.03;95355.28;5070530;28;20978;-67
2021/04/01 04:47:54;;;;;;;31.10;19.23;;;;;;;10.87;44.00;95360.59;5071155;28;20438;-73
2021/04/01 04:50:20;;;;;;;54.57;32.20;;;;;;;11.04;44.28;95377.03;5070429;28;20488;-72
2021/04/01 04:52:47;;;;;;;334.30;242.60;;;;;;;11.17;44.57;95376.66;5070975;28;20834;-71
2021/04/01 04:55:13;;;;;;;35.20;22.13;;;;;;;11.16;43.03;95380.31;5070545;28;20447;-70
2021/04/01 05:05:27;;;;;;;45.07;21.30;;;;;;;11.02;44.16;95383.59;5070724;28;20446;-67
2021/04/01 05:07:53;;;;;;;37.33;20.00;;;;;;;11.19;42.75;95389.50;5070882;28;20564;-68
2021/04/01 05:10:20;;;;;;;40.43;20.47;;;;;;;11.02;44.04;95389.59;5069690;28;20936;-68
2021/04/01 05:12:53;;;;;;;43.77;20.23;;;;;;;11.07;43.91;95389.66;5070858;28;20445;-73
2021/04/01 05:15:20;;;;;;;40.00;20.97;;;;;;;11.20;43.67;95391.88;5070537;28;20446;-72
2021/04/01 05:17:46;;;;;;;38.10;20.30;;;;;;;11.24;43.75;95390.34;5058602;28;20450;-73
2021/04/01 05:20:15;;;;;;;45.20;20.63;;;;;;;11.12;44.13;95397.59;5049098;28;20541;-72
2021/04/01 05:22:55;;;;;;;36.33;19.57;;;;;;;11.10;44.50;95393.63;5051464;28;20449;-70
2021/04/01 05:25:22;;;;;;;39.57;19.57;;;;;;;11.23;43.63;95399.28;5048701;28;20445;-70
2021/04/01 05:27:56;;;;;;;55.23;21.33;;;;;;;10.94;43.56;95361.19;5050360;28;20439;-74
2021/04/01 05:30:23;;;;;;;39.47;19.97;;;;;;;11.23;42.88;95391.41;5050272;28;21011;-70
2021/04/01 05:32:49;;;;;;;32.83;20.23;;;;;;;11.10;42.90;95391.78;5050321;28;20443;-74
2021/04/01 05:35:16;;;;;;;34.90;20.30;;;;;;;11.01;42.69;95389.84;5050077;28;20441;-75
2021/04/01 05:37:43;;;;;;;42.20;20.03;;;;;;;10.79;42.38;95389.06;5050374;28;20471;-72
2021/04/01 05:40:12;;;;;;;33.13;19.77;;;;;;;11.01;41.99;95392.47;5049980;28;20469;-72
2021/04/01 05:42:44;;;;;;;39.30;18.77;;;;;;;11.03;43.00;95396.44;5050361;28;20443;-74
2021/04/01 06:03:59;;;;;;;35.57;18.17;;;;;;;11.83;41.86;95395.66;5057966;28;20533;-71
2021/04/01 06:06:47;;;;;;;30.63;17.73;;;;;;;11.94;41.52;95406.00;5049996;28;20546;-75
2021/04/01 06:09:23;;;;;;;31.60;19.30;;;;;;;12.05;41.08;95417.38;5049359;28;20848;-72
2021/04/01 06:11:57;;;;;;;31.90;17.27;;;;;;;12.14;39.96;95414.03;5049780;28;20972;-72
2021/04/01 06:14:32;;;;;;;29.80;16.80;;;;;;;12.06;39.72;95416.34;5050366;28;20956;-69
2021/04/01 06:17:08;;;;;;;32.50;20.67;;;;;;;11.77;40.07;95397.44;5049854;28;20445;-70
2021/04/01 06:19:38;;;;;;;44.97;25.53;;;;;;;11.97;39.72;95426.50;5071965;28;20488;-71
2021/04/01 06:22:08;;;;;;;38.87;24.13;;;;;;;11.93;40.47;95432.50;5073134;28;20438;-72
2021/04/01 06:24:38;;;;;;;46.47;27.97;;;;;;;11.98;39.92;95435.16;5070488;28;20446;-73
2021/04/01 06:27:16;;;;;;;47.60;27.70;;;;;;;12.05;40.49;95430.50;5070179;28;20887;-72
2021/04/01 06:30:12;;;;;;;44.53;26.20;;;;;;;11.94;40.58;95426.19;5072423;28;20469;-69
2021/04/01 06:32:35;;;;;;;35.77;20.83;;;;;;;12.05;39.51;95420.00;5073425;28;20452;-71
2021/04/01 06:35:22;;;;;;;35.13;21.03;;;;;;;12.31;39.49;95419.13;5073900;28;20529;-73
2021/04/01 06:41:04;;;;;;;32.93;17.90;;;;;;;12.74;38.77;95426.75;5073680;28;21006;-73
2021/04/01 06:44:08;;;;;;;30.00;17.10;;;;;;;12.76;37.73;95419.41;5065679;28;20526;-70
2021/04/01 06:46:45;;;;;;;27.63;17.30;;;;;;;12.86;37.46;95421.28;5064324;28;21177;-74
2021/04/01 06:52:12;;;;;;;34.03;17.13;;;;;;;12.96;38.32;95421.31;5064388;28;20529;-71
2021/04/01 06:54:53;;;;;;;23.27;15.70;;;;;;;12.87;38.96;95418.41;5053545;28;21007;-73
2021/04/01 06:57:33;;;;;;;26.67;16.57;;;;;;;13.03;39.49;95427.97;5068968;28;20451;-68
2021/04/01 07:03:42;;;;;;;21.87;16.90;;;;;;;13.31;39.77;95423.31;5050476;28;20435;-70
2021/04/01 07:06:26;;;;;;;30.27;16.53;;;;;;;13.23;39.95;95432.50;5051217;28;20504;-70
2021/04/01 07:11:38;;;;;;;32.83;17.47;;;;;;;13.11;40.81;95416.94;5052933;28;21022;-73
2021/04/01 07:14:12;;;;;;;24.93;16.60;;;;;;;13.19;41.03;95426.19;5052968;28;20857;-68
2021/04/01 07:17:04;;;;;;;25.27;15.93;;;;;;;13.38;40.97;95439.66;5052762;28;20845;-71
2021/04/01 07:19:54;;;;;;;24.47;16.57;;;;;;;13.49;40.51;95436.00;5052947;28;20516;-70
2021/04/01 07:48:02;;;;;;;24.40;16.77;;;;;;;14.83;39.92;95426.53;5052490;28;20434;-69
2021/04/01 07:50:41;;;;;;;21.17;15.40;;;;;;;14.89;38.70;95414.88;5052186;28;20502;-72
2021/04/01 07:53:11;;;;;;;22.37;16.27;;;;;;;14.97;38.20;95424.88;5052542;28;20644;-70
2021/04/01 08:03:58;;;;;;;20.97;14.57;;;;;;;14.85;38.57;95429.66;5052086;28;20477;-68
2021/04/01 08:06:28;;;;;;;19.17;13.33;;;;;;;14.76;37.29;95420.72;5052287;28;20458;-70
2021/04/01 08:09:03;;;;;;;19.47;13.00;;;;;;;14.90;38.17;95420.94;5051886;28;20473;-70
2021/04/01 08:11:34;;;;;;;18.07;12.77;;;;;;;14.82;37.88;95429.41;5051844;28;20505;-71
2021/04/01 08:14:30;;;;;;;15.40;12.40;;;;;;;14.81;38.16;95431.28;5051901;28;20446;-69
2021/04/01 08:17:07;;;;;;;14.27;12.00;;;;;;;14.55;37.62;95424.47;5052156;28;20482;-75
2021/04/01 08:19:35;;;;;;;20.80;12.30;;;;;;;14.83;39.25;95431.78;5051948;28;20431;-70
2021/04/01 08:22:27;;;;;;;25.50;12.57;;;;;;;14.96;38.38;95425.94;5051778;28;20435;-69
2021/04/01 08:25:17;;;;;;;17.03;11.27;;;;;;;15.12;38.24;95419.56;5051588;28;20818;-71
2021/04/01 08:28:30;;;;;;;14.50;11.23;;;;;;;15.29;38.00;95415.78;5051652;28;20823;-68
2021/04/01 08:37:15;;;;;;;18.37;12.00;;;;;;;15.01;37.75;95386.34;5051631;28;20445;-75
2021/04/01 08:40:03;;;;;;;17.47;11.60;;;;;;;15.09;36.62;95400.84;5051541;28;20431;-73
2021/04/01 08:46:27;;;;;;;16.87;11.57;;;;;;;15.66;37.52;95398.41;5050876;28;20438;-71
2021/04/01 08:49:03;;;;;;;17.90;11.93;;;;;;;15.74;36.82;95399.69;5051237;28;20450;-72
2021/04/01 08:51:49;;;;;;;15.67;11.10;;;;;;;15.57;36.92;95388.69;5058670;28;20845;-71
2021/04/01 08:54:21;;;;;;;12.87;10.77;;;;;;;15.40;35.71;95401.47;5075062;28;20445;-68
2021/04/01 08:57:04;;;;;;;17.60;11.23;;;;;;;15.62;36.56;95396.63;5059488;28;20427;-70
2021/04/01 08:59:55;;;;;;;16.97;10.80;;;;;;;15.80;36.37;95394.09;5059364;28;20439;-67
2021/04/01 09:02:23;;;;;;;13.67;10.37;;;;;;;15.40;34.07;95385.63;5065015;28;20438;-67
2021/04/01 09:04:52;;;;;;;17.70;10.17;;;;;;;14.86;36.46;95381.13;5058743;28;20427;-69
2021/04/01 09:07:26;;;;;;;17.07;11.20;;;;;;;15.34;36.09;95378.78;5050653;28;20572;-68
2021/04/01 09:10:01;;;;;;;20.53;10.50;;;;;;;15.74;35.91;95389.13;5050224;28;21373;-68
2021/04/01 09:12:36;;;;;;;12.93;10.03;;;;;;;15.46;34.74;95381.91;5051110;28;20444;-68
2021/04/01 09:15:15;;;;;;;11.33;9.07;;;;;;;14.92;34.86;95382.69;5051194;28;20453;-73
2021/04/01 09:17:42;;;;;;;12.03;8.53;;;;;;;14.93;35.34;95373.69;5051282;28;20478;-68
2021/04/01 09:20:19;;;;;;;14.17;9.63;;;;;;;15.66;35.30;95377.28;5051068;28;21064;-67
2021/04/01 09:22:54;;;;;;;13.83;9.27;;;;;;;16.01;33.69;95370.94;5050867;28;20442;-73
2021/04/01 09:25:22;;;;;;;9.23;6.23;;;;;;;16.18;30.89;95368.69;5050877;28;20984;-71
2021/04/01 09:27:53;;;;;;;11.63;6.73;;;;;;;16.49;31.27;95369.19;5050534;28;20492;-72
2021/04/01 09:30:23;;;;;;;10.73;5.50;;;;;;;16.74;27.42;95351.19;5050303;28;20525;-74
2021/04/01 09:32:57;;;;;;;8.33;5.97;;;;;;;17.10;29.31;95351.53;5051013;28;20438;-69
2021/04/01 09:35:25;;;;;;;10.00;6.90;;;;;;;17.40;30.78;95347.69;5050615;28;20442;-72
2021/04/01 09:38:08;;;;;;;10.87;6.97;;;;;;;17.55;29.84;95350.16;5051208;28;20435;-73
2021/04/01 09:40:42;;;;;;;9.00;6.20;;;;;;;17.85;28.70;95339.88;5050955;28;20833;-72
2021/04/01 09:43:20;;;;;;;7.80;6.17;;;;;;;17.92;28.66;95329.69;5050905;28;20541;-66
2021/04/01 09:45:48;;;;;;;10.73;6.63;;;;;;;18.08;28.20;95338.19;5050080;28;21404;-67
2021/04/01 09:48:21;;;;;;;8.63;6.67;;;;;;;18.36;28.21;95331.06;5050272;28;20446;-71
2021/04/01 09:50:47;;;;;;;7.93;6.20;;;;;;;18.64;26.42;95324.72;5050606;28;20486;-69
2021/04/01 09:53:21;;;;;;;9.83;6.20;;;;;;;18.77;26.49;95324.75;5050224;28;20454;-70
2021/04/01 09:55:50;;;;;;;9.53;6.03;;;;;;;18.80;27.41;95320.69;5050733;28;20430;-67
2021/04/01 09:58:29;;;;;;;10.80;7.30;;;;;;;19.19;27.16;95316.44;5050331;28;20450;-66
2021/04/01 10:01:08;;;;;;;8.87;5.77;;;;;;;19.31;26.35;95317.75;5050195;28;20435;-67
2021/04/01 10:03:46;;;;;;;8.40;6.20;;;;;;;19.15;25.91;95304.81;5050671;28;20846;-73
2021/04/01 10:06:50;;;;;;;7.93;5.37;;;;;;;19.38;25.95;95300.34;5054345;28;20714;-77
2021/04/01 10:09:24;;;;;;;12.43;6.27;;;;;;;19.66;24.73;95295.72;5053815;28;20470;-70
2021/04/01 10:11:58;;;;;;;9.07;5.43;;;;;;;19.67;24.58;95294.66;5054066;28;20446;-70
2021/04/01 10:14:28;;;;;;;7.23;5.90;;;;;;;19.69;25.26;95292.47;5054383;28;20447;-70
2021/04/01 10:17:17;;;;;;;8.10;4.83;;;;;;;19.52;24.81;95289.69;5053999;28;20860;-69
2021/04/01 10:19:49;;;;;;;11.27;5.20;;;;;;;19.45;24.03;95278.69;5054225;28;20439;-70
2021/04/01 10:22:28;;;;;;;8.87;5.43;;;;;;;19.44;24.35;95274.44;5054383;28;20449;-67
2021/04/01 10:30:29;;;;;;;9.10;4.67;;;;;;;20.44;22.06;95265.81;5053612;28;20221;-67
2021/04/01 10:33:17;;;;;;;9.13;5.10;;;;;;;20.30;21.85;95271.25;5054363;28;20204;-69
2021/04/01 10:35:48;;;;;;;6.63;3.37;;;;;;;20.15;19.68;95266.28;5054009;28;20254;-70
2021/04/01 10:38:17;;;;;;;8.80;3.90;;;;;;;20.02;19.68;95259.97;5053951;28;20575;-68
2021/04/01 10:40:48;;;;;;;9.47;4.40;;;;;;;20.12;20.91;95264.25;5053389;28;20477;-69
2021/04/01 10:43:19;;;;;;;6.77;3.87;;;;;;;20.14;20.79;95252.19;5053994;28;20862;-69
2021/04/01 10:45:46;;;;;;;5.00;3.80;;;;;;;20.42;20.85;95255.47;5053220;28;21023;-71
2021/04/01 10:48:22;;;;;;;22.23;4.77;;;;;;;20.70;21.19;95248.03;5053696;28;20440;-71
2021/04/01 10:50:51;;;;;;;6.93;4.40;;;;;;;20.74;21.60;95244.47;5053291;28;20540;-72
2021/04/01 10:53:22;;;;;;;6.40;4.33;;;;;;;20.70;21.14;95248.84;5053272;28;20196;-70
2021/04/01 10:55:50;;;;;;;7.43;4.50;;;;;;;20.60;20.59;95238.44;5053223;28;20230;-69
2021/04/01 10:58:17;;;;;;;10.00;4.57;;;;;;;20.88;21.57;95253.09;5053324;28;20192;-71
2021/04/01 11:00:53;;;;;;;7.87;4.83;;;;;;;20.57;21.00;95244.41;5052840;28;20211;-71
2021/04/01 11:03:25;;;;;;;8.50;4.43;;;;;;;20.40;20.68;95239.03;5052214;28;20731;-70
2021/04/01 11:05:52;;;;;;;6.87;4.23;;;;;;;19.92;20.60;95238.97;5053376;28;20184;-72
2021/04/01 11:08:21;;;;;;;6.97;4.80;;;;;;;20.38;20.42;95235.91;5053217;28;20192;-71
2021/04/01 11:10:58;;;;;;;8.10;5.20;;;;;;;20.70;20.35;95232.84;5053171;28;20278;-71
2021/04/01 11:13:35;;;;;;;11.20;4.73;;;;;;;21.05;20.67;95223.06;5053084;28;20203;-72
2021/04/01 11:16:06;;;;;;;9.57;4.60;;;;;;;21.39;19.01;95222.25;5052259;28;20211;-70
2021/04/01 11:18:42;;;;;;;7.80;3.60;;;;;;;21.48;17.42;95207.03;5059564;28;20663;-70
2021/04/01 11:21:11;;;;;;;6.27;4.03;;;;;;;21.65;17.49;95205.16;5061352;28;20655;-68
2021/04/01 11:23:37;;;;;;;10.27;4.17;;;;;;;21.83;18.36;95211.25;5062950;28;20292;-69
2021/04/01 11:26:04;;;;;;;4.37;3.90;;;;;;;22.20;18.02;95210.50;5062910;28;20207;-69
2021/04/01 11:28:37;;;;;;;6.07;3.67;;;;;;;22.35;16.75;95198.50;5063027;28;20196;-68
2021/04/01 11:31:20;;;;;;;5.90;4.27;;;;;;;22.54;16.11;95188.19;5071616;28;20234;-68
2021/04/01 11:33:47;;;;;;;7.43;4.00;;;;;;;22.90;15.60;95183.88;5072768;28;20271;-70
2021/04/01 11:36:19;;;;;;;10.30;4.00;;;;;;;22.42;16.97;95170.19;5072451;28;20717;-68
2021/04/01 11:38:51;;;;;;;6.33;3.77;;;;;;;22.71;17.10;95170.22;5072655;28;20207;-69
2021/04/01 11:41:22;;;;;;;7.00;3.70;;;;;;;23.03;16.62;95180.19;5071049;28;20206;-69
2021/04/01 11:43:53;;;;;;;5.30;4.07;;;;;;;22.90;17.32;95173.19;5072141;28;20717;-70
2021/04/01 11:46:20;;;;;;;8.87;4.30;;;;;;;23.13;17.22;95177.13;5072388;28;20200;-70
2021/04/01 11:48:48;;;;;;;12.90;4.40;;;;;;;23.07;17.55;95162.38;5072322;28;20198;-72
2021/04/01 11:51:25;;;;;;;7.57;4.07;;;;;;;23.40;16.89;95161.66;5072081;28;20219;-68
2021/04/01 11:53:51;;;;;;;9.93;4.63;;;;;;;23.16;17.11;95151.63;5072383;28;20187;-70
2021/04/01 11:56:19;;;;;;;6.73;4.27;;;;;;;23.34;17.25;95168.34;5072476;28;20200;-67
2021/04/01 11:58:46;;;;;;;7.77;4.70;;;;;;;22.99;18.29;95136.50;5072029;28;20203;-71
2021/04/01 12:01:26;;;;;;;5.63;3.83;;;;;;;23.18;16.64;95144.06;5071907;28;20628;-69
2021/04/01 12:04:03;;;;;;;5.37;4.10;;;;;;;22.99;16.45;95146.44;5071912;28;20689;-70
2021/04/01 12:06:30;;;;;;;5.27;3.50;;;;;;;23.24;15.98;95160.66;5072100;28;20203;-73
2021/04/01 12:08:57;;;;;;;4.83;4.00;;;;;;;23.45;16.42;95158.78;5071762;28;20297;-69
2021/04/01 12:11:27;;;;;;;5.03;3.83;;;;;;;22.67;14.62;95155.94;5072246;28;20219;-68
2021/04/01 12:14:06;;;;;;;5.17;3.90;;;;;;;23.19;16.06;95142.97;5071636;28;20227;-71
2021/04/01 12:16:32;;;;;;;8.33;4.13;;;;;;;23.13;15.13;95131.69;5071844;28;20200;-72
2021/04/01 12:19:01;;;;;;;5.20;3.97;;;;;;;22.06;15.42;95137.88;5071858;28;20206;-72
2021/04/01 12:21:28;;;;;;;4.97;3.83;;;;;;;23.09;15.96;95138.78;5071857;28;20223;-68
2021/04/01 12:23:59;;;;;;;5.10;3.70;;;;;;;23.83;15.39;95129.91;5071784;28;20211;-71
2021/04/01 12:26:30;;;;;;;19.13;4.33;;;;;;;23.98;15.15;95138.03;5070811;28;20210;-70
2021/04/01 12:29:01;;;;;;;5.80;4.20;;;;;;;24.23;16.14;95120.13;5071714;28;20195;-72
2021/04/01 12:31:31;;;;;;;11.87;5.07;;;;;;;24.29;15.99;95128.72;5071644;28;20781;-70
2021/04/01 12:33:57;;;;;;;7.13;3.93;;;;;;;24.10;15.71;95111.28;5071572;28;20204;-75
2021/04/01 12:36:30;;;;;;;7.80;4.10;;;;;;;23.98;15.06;95107.81;5070395;28;20196;-72
2021/04/01 12:39:08;;;;;;;6.77;4.30;;;;;;;23.48;15.66;95048.47;5071508;28;20251;-71
2021/04/01 12:41:40;;;;;;;6.17;3.60;;;;;;;23.83;15.04;95121.88;5071516;28;20250;-70
2021/04/01 12:44:07;;;;;;;6.37;4.23;;;;;;;24.15;14.67;95101.47;5070786;28;20183;-72
2021/04/01 12:46:45;;;;;;;20.63;5.27;;;;;;;24.33;15.35;95108.94;5069729;28;20196;-72
2021/04/01 12:49:14;;;;;;;6.33;4.67;;;;;;;24.61;15.27;95104.44;5069932;28;20196;-71
2021/04/01 12:51:57;;;;;;;8.03;4.03;;;;;;;24.84;14.82;95097.50;5071111;28;20236;-70
2021/04/01 12:54:27;;;;;;;5.37;3.93;;;;;;;24.62;14.86;95089.13;5071286;28;20199;-70
2021/04/01 12:56:58;;;;;;;6.03;4.63;;;;;;;24.88;14.29;95089.53;5070832;28;20188;-68
2021/04/01 12:59:43;;;;;;;7.60;4.90;;;;;;;24.93;14.68;95090.09;5070683;28;20200;-71
2021/04/01 13:02:22;;;;;;;5.37;4.03;;;;;;;24.76;13.32;95082.31;5070911;28;20300;-72
2021/04/01 13:04:55;;;;;;;7.70;4.33;;;;;;;24.56;13.68;95080.53;5071033;28;20676;-71
2021/04/01 13:12:49;;;;;;;8.53;4.30;;;;;;;24.53;14.77;95075.88;5070354;28;20184;-70
2021/04/01 13:15:16;;;;;;;4.57;3.67;;;;;;;24.58;13.60;95067.59;5070703;28;20203;-72
2021/04/01 13:17:42;;;;;;;5.67;4.23;;;;;;;24.78;13.88;95076.63;5070674;28;20600;-71
2021/04/01 13:20:13;;;;;;;5.63;4.10;;;;;;;24.95;13.34;95060.25;5070551;28;20270;-68
2021/04/01 13:23:08;;;;;;;6.17;4.17;;;;;;;25.09;14.03;95065.97;5070523;28;20211;-70
2021/04/01 13:25:35;;;;;;;6.43;4.63;;;;;;;24.84;15.37;95076.03;5070531;28;20199;-74
2021/04/01 13:28:06;;;;;;;6.20;4.07;;;;;;;24.85;13.91;95056.16;5070263;28;20205;-75